Terminal Aerodrome Forecast
Issued by NWS

Home | Current Version | Previous Version | Text Only | Print | Product List | Glossary On
Versions: 1 2 3 4 5 6 7 8 9 10 11 12 13 14 15 16
000
FTPA31 PHFO 180526
TAFHNY
TAF
PHNY 180526Z 1806/1906 05020G32KT P6SM FEW025
     FM180800 06015G23KT P6SM FEW025
     FM182100 06023G35KT P6SM FEW025=

USA.gov is the U.S. government's official web portal to all federal, state and local government web resources and services.